Airfield :
LOGIN :

Register | Disclaimer

   EN    FR    IT 

 










Legend :    VFR   Marginal VFR   IFR   Intensive IFR   Very Intensive IFR
Visi :
Ceiling :
>= 8 km
>= 3000ft
5 to 8 km
1000 to 3000 ft
1500m to 5 km
500 to 1000 ft
800 to 1500m
200 to 500 ft
< 800m
< 200 ft
Symbols :   Thunderstorms  Fog  Heavy snow  Heavy precipitations  Wind > 20 kt
SIGMETs :     Misc.  Thunderstorms  Icing  Turbulence  Mountain Waves  Volcanic Ashes







- Airport Elevation : 117 ft
- IATA code : NWI
- Download approach charts


EGSH - Norwich

CURRENT METAR :
  • 181750Z 16005KT 9999 FEW042 06/03 Q1021 NOSIG

EXPIRED METARs :
  • 181720Z 17007KT 9999 FEW046 06/03 Q1021 NOSIG
  • 181650Z 17008KT 9999 FEW041 07/03 Q1021 NOSIG
  • 181620Z 18008KT 9999 FEW032 08/03 Q1021 NOSIG
  • 181550Z 17008KT 140V210 9999 FEW029 08/04 Q1021 NOSIG
  • 181520Z 17009KT 140V210 9999 SCT029 09/03 Q1021 NOSIG

TAF TAF EGSH
Valid from the 18 at 18:00 until the 19 at 00:00 UTC


181657Z 1818/1824 17008KT 9999 SCT030
PROB30 1822/1824 4000 BR
ATIS : +44 1603 420 640
No reported NOTAMs for that airfield.



MET'MAP, your aeronautical weather chart ! - Copyright ORBIFLY December 2007 - Disclaimer

ORBIFLY MET'MAP TEAM :

Programming & Development : Alexandra Zaïnal
Concept & Development : Baudouin d'Aumeries
Co-Development & Prog : Marc-Olivier Méhu
Technical & hardware support : Manuel Goepfert

Contact : metmap@orbifly.com




SOURCES & CREDITS :

   NOAA